Time;durP1;ratioP1;P1;durP2;ratioP2;P2;SDS_P1;SDS_P2;PMS_P1;PMS_P2;Temp;Humidity;BMP_temperature;BMP_pressure;BME280_temperature;BME280_humidity;BME280_pressure;Samples;Min_cycle;Max_cycle;Signal;HPM_P1;HPM_P2
2022/07/24 00:01:33;;;;;;;12.13;8.57;;;20.30;99.90;;;;;;4897945;29;20060;-72
2022/07/24 00:04:00;;;;;;;10.13;8.20;;;20.30;99.90;;;;;;4907506;29;20052;-71
2022/07/24 00:06:28;;;;;;;10.93;7.82;;;20.20;99.90;;;;;;4897823;29;20436;-71
2022/07/24 00:08:56;;;;;;;9.70;7.63;;;20.20;99.90;;;;;;4897916;29;20060;-71
2022/07/24 00:11:23;;;;;;;9.55;8.65;;;20.10;99.90;;;;;;4897213;29;20048;-72
2022/07/24 00:13:52;;;;;;;9.75;7.88;;;20.00;99.90;;;;;;4880929;29;20060;-71
2022/07/24 00:16:19;;;;;;;14.00;8.55;;;20.00;99.90;;;;;;4865807;29;20056;-71
2022/07/24 00:18:47;;;;;;;10.73;8.02;;;19.90;99.90;;;;;;4897036;29;20465;-71
2022/07/24 00:21:14;;;;;;;10.25;7.47;;;19.90;99.90;;;;;;4897898;29;20092;-72
2022/07/24 00:23:42;;;;;;;9.25;7.80;;;19.90;99.90;;;;;;4883045;29;20052;-71
2022/07/24 00:26:10;;;;;;;14.77;8.60;;;19.80;99.90;;;;;;4885359;29;20044;-71
2022/07/24 00:28:37;;;;;;;10.70;8.70;;;19.80;99.90;;;;;;4903341;29;20056;-72
2022/07/24 00:31:06;;;;;;;11.50;8.15;;;19.70;99.90;;;;;;4902436;29;20512;-71
2022/07/24 00:33:34;;;;;;;13.32;9.27;;;19.70;99.90;;;;;;4901967;29;20059;-71
2022/07/24 00:36:02;;;;;;;11.48;8.43;;;19.70;99.90;;;;;;4886878;29;20058;-71
2022/07/24 00:38:29;;;;;;;9.90;8.43;;;19.60;99.90;;;;;;4898927;29;20206;-71
2022/07/24 00:40:56;;;;;;;11.10;8.50;;;19.60;99.90;;;;;;4888451;29;20138;-71
2022/07/24 00:43:24;;;;;;;9.80;8.35;;;19.60;99.90;;;;;;4898747;29;20077;-71
2022/07/24 00:45:51;;;;;;;11.45;9.02;;;19.60;99.90;;;;;;4905058;29;20054;-72
2022/07/24 00:48:20;;;;;;;9.55;8.00;;;19.60;99.90;;;;;;4898136;29;20131;-72
2022/07/24 00:50:48;;;;;;;12.27;9.43;;;19.60;99.90;;;;;;4897685;29;20152;-71
2022/07/24 00:53:16;;;;;;;10.00;8.88;;;19.60;99.90;;;;;;4897102;29;20063;-71
2022/07/24 00:55:44;;;;;;;9.95;8.63;;;19.60;99.90;;;;;;4897561;29;20071;-71
2022/07/24 00:58:12;;;;;;;11.48;8.57;;;19.60;99.90;;;;;;4896785;29;20048;-71
2022/07/24 01:00:40;;;;;;;12.43;9.20;;;19.60;99.90;;;;;;4892195;29;20060;-71
2022/07/24 01:03:07;;;;;;;12.98;9.80;;;19.60;99.90;;;;;;4880758;29;20055;-71
2022/07/24 01:05:36;;;;;;;14.45;9.60;;;19.60;99.90;;;;;;4904173;29;20080;-71
2022/07/24 01:08:04;;;;;;;13.40;9.15;;;19.60;99.90;;;;;;4896633;29;20048;-71
2022/07/24 01:10:31;;;;;;;10.82;8.88;;;19.60;99.90;;;;;;4905979;29;20394;-71
2022/07/24 01:12:59;;;;;;;11.20;9.02;;;19.60;99.90;;;;;;4896438;29;20056;-71
2022/07/24 01:15:27;;;;;;;9.43;8.50;;;19.60;99.90;;;;;;4880189;29;20147;-71
2022/07/24 01:17:54;;;;;;;10.73;8.73;;;19.60;99.90;;;;;;4895859;29;20088;-71
2022/07/24 01:20:22;;;;;;;14.82;9.00;;;19.60;99.90;;;;;;4896917;29;20064;-71
2022/07/24 01:22:50;;;;;;;13.48;9.20;;;19.50;99.90;;;;;;4896270;29;20172;-70
2022/07/24 01:25:18;;;;;;;14.90;9.43;;;19.60;99.90;;;;;;4879998;29;20052;-70
2022/07/24 01:27:45;;;;;;;10.15;8.43;;;19.60;99.90;;;;;;4896411;29;20084;-71
2022/07/24 01:30:13;;;;;;;14.63;8.50;;;19.60;99.90;;;;;;4901576;29;20517;-71
2022/07/24 01:32:40;;;;;;;13.07;8.95;;;19.60;99.90;;;;;;4896575;29;20131;-71
2022/07/24 01:35:08;;;;;;;9.82;8.57;;;19.60;99.90;;;;;;4887070;29;20069;-71
2022/07/24 01:37:36;;;;;;;10.35;8.20;;;19.60;99.90;;;;;;4896104;29;20136;-71
2022/07/24 01:40:05;;;;;;;12.57;8.70;;;19.70;99.90;;;;;;4886589;29;20056;-71
2022/07/24 01:42:33;;;;;;;10.65;8.40;;;19.70;99.90;;;;;;4895523;29;20552;-71
2022/07/24 01:45:00;;;;;;;10.70;8.60;;;19.70;99.90;;;;;;4896131;29;20044;-71
2022/07/24 01:47:28;;;;;;;12.70;8.48;;;19.80;99.90;;;;;;4879239;29;20053;-71
2022/07/24 01:49:56;;;;;;;15.80;8.32;;;19.80;99.90;;;;;;4896052;29;20061;-71
2022/07/24 01:52:25;;;;;;;9.50;8.48;;;19.80;99.90;;;;;;4895379;29;20424;-71
2022/07/24 01:54:52;;;;;;;8.43;7.55;;;19.90;99.90;;;;;;4895567;29;20060;-71
2022/07/24 01:57:21;;;;;;;9.63;8.63;;;19.90;99.90;;;;;;4894485;29;20060;-70
2022/07/24 01:59:48;;;;;;;10.68;8.27;;;19.90;99.90;;;;;;4895572;29;20049;-71
2022/07/24 02:02:16;;;;;;;10.73;8.60;;;19.90;99.90;;;;;;4898066;29;20064;-71
2022/07/24 02:04:43;;;;;;;11.88;7.70;;;19.90;99.90;;;;;;4900747;29;20134;-71
2022/07/24 02:07:10;;;;;;;9.15;7.22;;;19.90;99.90;;;;;;4898846;29;20520;-71
2022/07/24 02:09:38;;;;;;;12.13;8.32;;;20.00;99.90;;;;;;4902057;29;20063;-71
2022/07/24 02:12:06;;;;;;;10.60;7.95;;;20.00;99.90;;;;;;4900043;29;20497;-71
2022/07/24 02:14:35;;;;;;;11.45;8.15;;;19.90;99.90;;;;;;4898175;29;20055;-71
2022/07/24 02:17:02;;;;;;;9.73;8.05;;;19.90;99.90;;;;;;4879132;29;20059;-71
2022/07/24 02:19:29;;;;;;;7.70;6.85;;;19.90;99.90;;;;;;4863988;29;20045;-71
2022/07/24 02:21:57;;;;;;;12.38;8.38;;;19.90;99.90;;;;;;4901024;29;20060;-71
2022/07/24 02:24:24;;;;;;;9.77;7.43;;;19.90;99.90;;;;;;4879792;29;20104;-72
2022/07/24 02:26:51;;;;;;;9.68;7.45;;;20.00;99.90;;;;;;4895964;29;20052;-71
2022/07/24 02:29:19;;;;;;;9.07;7.28;;;20.00;99.90;;;;;;4895266;29;20581;-71
2022/07/24 02:31:47;;;;;;;11.25;8.23;;;20.00;99.90;;;;;;4895905;29;20053;-71
2022/07/24 02:34:15;;;;;;;14.65;8.13;;;20.00;99.90;;;;;;4863713;29;20131;-71
2022/07/24 02:36:43;;;;;;;10.43;8.45;;;20.10;99.90;;;;;;4886373;29;20044;-71
2022/07/24 02:39:10;;;;;;;9.13;8.23;;;20.10;99.90;;;;;;4879404;29;20048;-71
2022/07/24 02:41:38;;;;;;;9.57;7.80;;;20.20;99.90;;;;;;4886147;29;20569;-72
2022/07/24 02:44:05;;;;;;;10.05;7.40;;;20.20;99.90;;;;;;4895186;29;20079;-72
2022/07/24 02:46:33;;;;;;;10.45;7.85;;;20.20;99.90;;;;;;4903605;29;20056;-72
2022/07/24 02:49:01;;;;;;;11.85;7.78;;;20.20;99.90;;;;;;4895106;29;20187;-72
2022/07/24 02:51:29;;;;;;;13.90;10.15;;;20.20;99.90;;;;;;4904153;29;20059;-72
2022/07/24 02:53:56;;;;;;;8.70;7.80;;;20.30;99.90;;;;;;4894512;29;20052;-72
2022/07/24 02:56:23;;;;;;;11.05;8.18;;;20.30;99.90;;;;;;4904409;29;20083;-72
2022/07/24 02:58:51;;;;;;;10.57;7.20;;;20.30;99.90;;;;;;4877315;29;20047;-72
2022/07/24 03:01:18;;;;;;;9.55;7.80;;;20.30;99.90;;;;;;4904684;29;20048;-72
2022/07/24 03:03:45;;;;;;;9.35;7.50;;;20.30;99.90;;;;;;4877716;29;20513;-72
2022/07/24 03:06:14;;;;;;;9.63;7.38;;;20.40;99.90;;;;;;4906103;29;20053;-72
2022/07/24 03:08:42;;;;;;;9.85;7.35;;;20.40;99.90;;;;;;4894808;29;20139;-72
2022/07/24 03:11:09;;;;;;;10.30;8.18;;;20.40;99.90;;;;;;4904261;29;20054;-72
2022/07/24 03:13:37;;;;;;;11.73;8.75;;;20.50;99.90;;;;;;4894972;29;20536;-72
2022/07/24 03:16:05;;;;;;;11.15;8.25;;;20.50;99.90;;;;;;4888760;29;20560;-72
2022/07/24 03:18:32;;;;;;;8.60;7.78;;;20.50;99.90;;;;;;4879540;29;20056;-72
2022/07/24 03:20:59;;;;;;;8.48;7.57;;;20.50;99.90;;;;;;4886314;29;20424;-72
2022/07/24 03:23:28;;;;;;;10.40;8.88;;;20.60;99.90;;;;;;4877403;29;20052;-72
2022/07/24 03:25:56;;;;;;;15.73;8.10;;;20.70;99.90;;;;;;4895169;29;20059;-72
2022/07/24 03:28:23;;;;;;;10.85;8.13;;;20.70;99.90;;;;;;4894749;29;20048;-72
2022/07/24 03:30:50;;;;;;;11.15;7.40;;;20.80;99.90;;;;;;4904747;29;20517;-72
2022/07/24 03:33:18;;;;;;;8.68;7.00;;;20.90;99.90;;;;;;4894416;29;20147;-72
2022/07/24 03:35:45;;;;;;;7.82;7.05;;;21.00;99.90;;;;;;4877643;29;20094;-73
2022/07/24 03:38:12;;;;;;;10.45;7.38;;;21.10;99.90;;;;;;4896851;29;20061;-73
2022/07/24 03:40:41;;;;;;;7.38;6.78;;;21.20;99.90;;;;;;4900192;29;20553;-72
2022/07/24 03:43:09;;;;;;;8.43;6.75;;;21.30;99.90;;;;;;4895785;29;20068;-72
2022/07/24 03:45:36;;;;;;;9.95;6.72;;;21.30;99.90;;;;;;4900184;29;20055;-72
2022/07/24 03:48:04;;;;;;;8.77;6.43;;;21.40;99.90;;;;;;4880958;29;20051;-72
2022/07/24 03:50:31;;;;;;;6.80;6.15;;;21.40;99.90;;;;;;4900448;29;20540;-72
2022/07/24 03:52:59;;;;;;;9.98;6.85;;;21.50;99.90;;;;;;4898626;29;20052;-71
2022/07/24 03:55:26;;;;;;;9.05;6.35;;;21.50;99.90;;;;;;4899870;29;20509;-71
2022/07/24 03:57:55;;;;;;;6.68;6.07;;;21.60;99.90;;;;;;4891909;29;20048;-71
2022/07/24 04:00:23;;;;;;;7.18;6.47;;;21.50;99.90;;;;;;4877719;29;20041;-71
2022/07/24 04:02:51;;;;;;;8.38;6.80;;;21.50;99.90;;;;;;4894389;29;20484;-71
2022/07/24 04:05:18;;;;;;;7.05;6.45;;;21.40;99.90;;;;;;4897780;29;20068;-71
2022/07/24 04:07:45;;;;;;;6.80;6.18;;;21.40;99.90;;;;;;4903460;29;20052;-71
2022/07/24 04:10:13;;;;;;;8.50;6.35;;;21.30;99.90;;;;;;4882501;29;20048;-71
2022/07/24 04:12:40;;;;;;;8.00;7.18;;;21.30;99.90;;;;;;4904756;29;20143;-71
2022/07/24 04:15:10;;;;;;;8.88;7.22;;;21.30;99.90;;;;;;4898419;29;20517;-71
2022/07/24 04:17:39;;;;;;;13.13;6.93;;;21.30;99.90;;;;;;4889662;29;20100;-72
2022/07/24 04:20:08;;;;;;;6.72;6.05;;;21.30;99.90;;;;;;4898380;29;20056;-71
2022/07/24 04:22:35;;;;;;;7.47;6.35;;;21.40;99.90;;;;;;4897792;29;20540;-71
2022/07/24 04:25:03;;;;;;;8.13;6.43;;;21.50;99.90;;;;;;4897410;29;20056;-71
2022/07/24 04:27:30;;;;;;;10.27;6.30;;;21.70;99.90;;;;;;4881230;29;20054;-71
2022/07/24 04:29:58;;;;;;;9.20;6.45;;;21.80;99.90;;;;;;4880250;29;20053;-71
2022/07/24 04:32:27;;;;;;;8.13;6.97;;;21.90;99.90;;;;;;4909315;29;20103;-71
2022/07/24 04:34:55;;;;;;;7.60;6.43;;;22.00;99.90;;;;;;4880314;29;20048;-71
2022/07/24 04:37:22;;;;;;;6.88;6.20;;;22.00;99.90;;;;;;4906225;29;20051;-71
2022/07/24 04:39:49;;;;;;;7.22;6.53;;;22.00;99.90;;;;;;4897025;29;20053;-71
2022/07/24 04:42:17;;;;;;;7.05;6.30;;;22.00;99.90;;;;;;4906129;29;20045;-71
2022/07/24 04:44:44;;;;;;;9.82;7.25;;;21.90;99.90;;;;;;4879752;29;20057;-71
2022/07/24 04:47:12;;;;;;;7.50;6.78;;;21.90;99.90;;;;;;4890022;29;20064;-71
2022/07/24 04:49:40;;;;;;;11.57;6.60;;;21.90;99.90;;;;;;4898710;29;20573;-71
2022/07/24 04:52:08;;;;;;;8.07;6.43;;;21.90;99.90;;;;;;4905187;29;20446;-71
2022/07/24 04:54:35;;;;;;;7.78;6.30;;;22.00;99.90;;;;;;4896503;29;20104;-71
2022/07/24 04:57:03;;;;;;;9.75;6.43;;;22.10;99.90;;;;;;4880273;29;20521;-71
2022/07/24 04:59:30;;;;;;;8.90;5.90;;;22.20;99.90;;;;;;4896475;29;20063;-72
2022/07/24 05:01:58;;;;;;;10.43;6.80;;;22.30;99.90;;;;;;4874228;29;20428;-71
2022/07/24 05:04:25;;;;;;;9.00;6.85;;;22.40;99.90;;;;;;4896677;29;20484;-71
2022/07/24 05:06:54;;;;;;;7.40;6.65;;;22.50;99.90;;;;;;4897009;29;20056;-72
2022/07/24 05:09:22;;;;;;;11.07;7.30;;;22.60;99.90;;;;;;4880677;29;20049;-71
2022/07/24 05:11:49;;;;;;;18.65;9.82;;;22.70;99.90;;;;;;4903268;29;20059;-72
2022/07/24 05:14:16;;;;;;;14.13;8.30;;;22.70;99.90;;;;;;4898526;29;20052;-71
2022/07/24 05:16:44;;;;;;;9.77;7.03;;;22.80;99.90;;;;;;4885878;29;20051;-72
2022/07/24 05:19:11;;;;;;;8.02;6.93;;;22.80;99.90;;;;;;4897514;29;20087;-71
2022/07/24 05:21:38;;;;;;;9.65;6.63;;;22.80;99.90;;;;;;4888341;29;20099;-72
2022/07/24 05:24:08;;;;;;;8.98;6.00;;;22.80;99.90;;;;;;4898664;29;20139;-72
2022/07/24 05:26:35;;;;;;;6.75;6.15;;;22.80;99.90;;;;;;4904482;29;20054;-72
2022/07/24 05:29:05;;;;;;;10.82;6.40;;;22.70;99.90;;;;;;4896892;29;20511;-71
2022/07/24 05:31:33;;;;;;;7.18;6.47;;;22.60;99.90;;;;;;4896206;29;20071;-71
2022/07/24 05:34:01;;;;;;;6.68;6.00;;;22.60;99.90;;;;;;4883315;29;20040;-72
2022/07/24 05:36:29;;;;;;;7.53;6.00;;;22.50;99.90;;;;;;4900812;29;20059;-71
2022/07/24 05:38:57;;;;;;;11.93;8.23;;;22.50;99.90;;;;;;4899288;29;20055;-71
2022/07/24 05:41:25;;;;;;;8.77;6.43;;;22.60;99.90;;;;;;4900045;29;20575;-72
2022/07/24 05:43:53;;;;;;;10.65;6.10;;;22.60;99.90;;;;;;4901074;29;20135;-72
2022/07/24 05:46:21;;;;;;;11.02;5.85;;;22.60;99.90;;;;;;4897611;29;20048;-72
2022/07/24 05:48:48;;;;;;;7.47;6.38;;;22.60;99.90;;;;;;4903048;29;20135;-71
2022/07/24 05:51:15;;;;;;;12.85;8.02;;;22.50;99.90;;;;;;4898756;29;20052;-72
2022/07/24 05:53:43;;;;;;;9.77;7.25;;;22.40;99.90;;;;;;4896468;29;20052;-72
2022/07/24 05:56:13;;;;;;;8.68;6.30;;;22.40;99.90;;;;;;4895732;29;20064;-72
2022/07/24 05:58:42;;;;;;;10.52;6.78;;;22.30;99.90;;;;;;4895780;29;21212;-71
2022/07/24 06:01:10;;;;;;;7.30;5.63;;;22.20;99.90;;;;;;4896971;29;20454;-71
2022/07/24 06:03:37;;;;;;;7.20;6.00;;;22.10;99.90;;;;;;4904209;29;20103;-72
2022/07/24 06:06:06;;;;;;;10.93;6.15;;;22.10;99.90;;;;;;4895936;29;20124;-71
2022/07/24 06:08:33;;;;;;;7.85;6.32;;;22.30;99.90;;;;;;4903902;29;20075;-71
2022/07/24 06:11:01;;;;;;;11.38;7.32;;;22.80;99.90;;;;;;4878559;29;20552;-71
2022/07/24 06:13:28;;;;;;;7.88;6.57;;;23.40;99.90;;;;;;4887314;29;20163;-71
2022/07/24 06:15:57;;;;;;;15.85;8.98;;;23.80;99.90;;;;;;4895072;29;20049;-71
2022/07/24 06:18:24;;;;;;;9.52;7.13;;;24.30;99.90;;;;;;4895581;29;20051;-71
2022/07/24 06:20:51;;;;;;;15.75;8.38;;;24.60;99.90;;;;;;4894889;29;20532;-71
2022/07/24 06:23:19;;;;;;;11.00;7.30;;;24.80;99.90;;;;;;4879012;29;20440;-72
2022/07/24 06:25:46;;;;;;;19.08;10.23;;;24.70;99.90;;;;;;4893699;29;20116;-71
2022/07/24 06:28:14;;;;;;;16.90;9.30;;;24.60;99.90;;;;;;4878246;29;20131;-70
2022/07/24 06:30:41;;;;;;;9.10;7.35;;;24.60;99.90;;;;;;4894405;29;20549;-71
2022/07/24 06:33:10;;;;;;;12.13;6.63;;;24.70;99.90;;;;;;4895832;29;20044;-72
2022/07/24 06:35:37;;;;;;;11.57;6.95;;;24.90;99.90;;;;;;4878160;29;20056;-71
2022/07/24 06:38:05;;;;;;;9.77;8.48;;;25.20;99.90;;;;;;4888312;29;20053;-72
2022/07/24 06:40:34;;;;;;;11.85;7.40;;;25.60;99.90;;;;;;4878416;29;20056;-72
2022/07/24 06:43:01;;;;;;;7.60;6.43;;;26.00;99.90;;;;;;4904766;29;20056;-72
2022/07/24 06:45:31;;;;;;;11.40;7.68;;;26.10;99.90;;;;;;4895291;29;20410;-71
2022/07/24 06:47:58;;;;;;;6.47;5.88;;;26.40;99.90;;;;;;4902727;29;20104;-72
2022/07/24 06:50:27;;;;;;;11.05;5.85;;;26.10;99.90;;;;;;4894644;29;20544;-73
2022/07/24 06:52:55;;;;;;;6.00;5.38;;;25.70;99.90;;;;;;4895089;29;20055;-73
2022/07/24 06:55:22;;;;;;;7.43;5.75;;;25.40;99.90;;;;;;4894409;29;20116;-71
2022/07/24 06:57:50;;;;;;;8.13;5.53;;;25.60;99.90;;;;;;4895009;29;20468;-71
2022/07/24 07:00:18;;;;;;;6.22;5.63;;;25.70;99.90;;;;;;4897194;29;20072;-72
2022/07/24 07:02:45;;;;;;;10.63;5.22;;;25.50;99.90;;;;;;4902772;29;20048;-71
2022/07/24 07:05:13;;;;;;;7.22;6.43;;;25.30;99.90;;;;;;4897788;29;20053;-71
2022/07/24 07:07:42;;;;;;;10.13;5.78;;;25.10;99.90;;;;;;4901801;29;20045;-71
2022/07/24 07:10:10;;;;;;;7.50;5.57;;;24.90;99.90;;;;;;4898437;29;20155;-75
2022/07/24 07:12:38;;;;;;;7.28;5.45;;;25.00;99.90;;;;;;4899153;29;20072;-75
2022/07/24 07:15:07;;;;;;;10.27;5.25;;;25.20;99.90;;;;;;4899990;29;20048;-75
2022/07/24 07:17:34;;;;;;;5.30;4.80;;;26.00;99.90;;;;;;4889766;29;20052;-77
2022/07/24 07:20:01;;;;;;;7.22;4.75;;;26.60;99.90;;;;;;4881633;29;20155;-76
2022/07/24 07:22:31;;;;;;;6.00;4.22;;;27.30;99.90;;;;;;4893318;29;20115;-77
2022/07/24 07:24:59;;;;;;;4.80;4.38;;;28.10;99.90;;;;;;4879856;29;20068;-76
2022/07/24 07:27:27;;;;;;;4.30;3.90;;;29.20;99.90;;;;;;4896935;29;20111;-76
2022/07/24 07:29:54;;;;;;;7.28;4.13;;;30.10;99.90;;;;;;4904190;29;20096;-76
2022/07/24 07:32:21;;;;;;;5.38;3.72;;;30.40;97.60;;;;;;4903812;29;20438;-76
2022/07/24 07:34:49;;;;;;;4.20;3.80;;;30.10;94.50;;;;;;4903958;29;20749;-76
2022/07/24 07:37:16;;;;;;;5.05;3.95;;;29.70;94.90;;;;;;4905895;29;20107;-75
2022/07/24 07:39:44;;;;;;;8.30;4.65;;;28.90;94.90;;;;;;4910791;29;20480;-76
2022/07/24 07:42:13;;;;;;;7.53;5.18;;;28.10;96.20;;;;;;4910720;29;20056;-76
2022/07/24 07:44:40;;;;;;;6.97;5.45;;;27.40;98.20;;;;;;4912290;29;20067;-76
2022/07/24 07:47:08;;;;;;;5.97;4.63;;;26.70;99.50;;;;;;4907070;29;20055;-75
2022/07/24 07:49:36;;;;;;;8.90;5.43;;;26.40;99.90;;;;;;4911981;29;20048;-75
2022/07/24 07:52:04;;;;;;;5.95;5.43;;;26.20;99.90;;;;;;4891550;29;20612;-75
2022/07/24 07:54:32;;;;;;;6.80;5.03;;;26.10;99.90;;;;;;4915582;29;20134;-75
2022/07/24 07:56:59;;;;;;;8.82;5.72;;;27.00;99.90;;;;;;4909495;29;20103;-76
2022/07/24 07:59:28;;;;;;;7.32;4.78;;;28.30;99.90;;;;;;4913114;29;20096;-77
2022/07/24 08:01:56;;;;;;;6.85;4.65;;;28.70;97.80;;;;;;4909942;29;20472;-76
2022/07/24 08:04:24;;;;;;;7.28;4.65;;;28.70;98.70;;;;;;4913228;29;20083;-77
2022/07/24 08:06:52;;;;;;;7.50;4.88;;;28.20;95.50;;;;;;4907405;29;20056;-76
2022/07/24 08:09:20;;;;;;;4.88;4.32;;;27.40;96.60;;;;;;4914713;29;20137;-77
2022/07/24 08:11:48;;;;;;;9.50;5.60;;;27.00;98.30;;;;;;4889040;29;20049;-77
2022/07/24 08:14:15;;;;;;;5.82;4.70;;;26.80;99.90;;;;;;4910959;29;20044;-76
2022/07/24 08:16:44;;;;;;;7.63;4.70;;;26.60;99.40;;;;;;4907840;29;20109;-76
2022/07/24 08:19:11;;;;;;;6.15;5.22;;;26.30;99.90;;;;;;4912432;29;20056;-75
2022/07/24 08:21:39;;;;;;;7.85;4.95;;;25.80;99.90;;;;;;4907870;29;20131;-76
2022/07/24 08:24:07;;;;;;;7.40;5.60;;;25.40;99.90;;;;;;4913809;29;20055;-76
2022/07/24 08:26:35;;;;;;;9.38;4.82;;;25.00;99.90;;;;;;4906818;29;20048;-74
2022/07/24 08:29:02;;;;;;;7.30;5.13;;;24.80;99.90;;;;;;4914564;29;20044;-76
2022/07/24 08:31:30;;;;;;;48.20;41.88;;;24.60;99.90;;;;;;4907603;29;20461;-74
2022/07/24 08:33:58;;;;;;;8.18;6.13;;;24.40;99.90;;;;;;4911874;29;20040;-77
2022/07/24 08:36:26;;;;;;;6.05;4.97;;;24.20;99.90;;;;;;4907763;29;20078;-77
2022/07/24 08:38:53;;;;;;;6.25;5.30;;;24.00;99.90;;;;;;4895916;29;20040;-77
2022/07/24 08:41:21;;;;;;;6.13;5.32;;;23.80;99.90;;;;;;4910571;29;20510;-76
2022/07/24 08:43:49;;;;;;;8.18;5.25;;;23.60;99.90;;;;;;4894804;29;20123;-75
2022/07/24 08:46:17;;;;;;;10.82;5.32;;;23.40;99.90;;;;;;4908859;29;20082;-71
2022/07/24 08:48:45;;;;;;;7.15;5.05;;;23.40;99.90;;;;;;4912468;29;20055;-72
2022/07/24 08:51:15;;;;;;;7.15;5.55;;;23.40;99.90;;;;;;4909435;29;20068;-72
2022/07/24 08:53:44;;;;;;;7.10;4.43;;;23.50;99.90;;;;;;4911769;29;20131;-70
2022/07/24 08:56:12;;;;;;;8.15;4.07;;;23.60;99.90;;;;;;4904303;29;20508;-72
2022/07/24 08:58:40;;;;;;;5.13;4.28;;;23.80;99.90;;;;;;4900705;29;20426;-69
2022/07/24 09:01:08;;;;;;;10.05;6.47;;;24.00;99.90;;;;;;4897259;29;20087;-70
2022/07/24 09:03:47;;;;;;;33.10;28.00;;;24.10;99.90;;;;;;4896400;29;20056;-75
2022/07/24 09:06:16;;;;;;;7.07;5.38;;;24.30;99.90;;;;;;4908958;29;20464;-75
2022/07/24 09:08:57;;;;;;;6.30;5.32;;;24.50;99.90;;;;;;4903565;29;20054;-77
2022/07/24 09:11:24;;;;;;;6.70;5.38;;;24.70;99.90;;;;;;4910114;29;20060;-75
2022/07/24 09:16:38;;;;;;;6.20;5.57;;;24.90;99.90;;;;;;4913340;29;20052;-74
2022/07/24 09:19:08;;;;;;;7.28;5.53;;;24.80;99.90;;;;;;4908984;29;20048;-75
2022/07/24 09:21:38;;;;;;;5.32;4.57;;;24.90;99.90;;;;;;4895334;29;20044;-75
2022/07/24 09:24:13;;;;;;;10.20;5.63;;;24.80;99.90;;;;;;4907040;29;20088;-75
2022/07/24 09:26:45;;;;;;;13.95;6.10;;;24.80;99.90;;;;;;4896131;29;20056;-75
2022/07/24 09:29:14;;;;;;;9.35;6.00;;;24.70;99.90;;;;;;4891800;29;20088;-75
2022/07/24 09:31:52;;;;;;;6.78;5.20;;;24.50;99.90;;;;;;4907973;29;20150;-74
2022/07/24 09:34:19;;;;;;;8.30;5.50;;;24.10;99.90;;;;;;4897845;29;20056;-71
2022/07/24 09:36:58;;;;;;;6.72;4.95;;;24.00;99.90;;;;;;4896267;29;20056;-72
2022/07/24 09:39:26;;;;;;;8.52;5.00;;;24.10;99.90;;;;;;4892365;29;20147;-71
2022/07/24 09:41:55;;;;;;;7.65;5.22;;;24.00;99.90;;;;;;4895366;29;20401;-71
2022/07/24 09:44:24;;;;;;;8.50;4.90;;;24.10;99.90;;;;;;4901283;29;20083;-71
2022/07/24 09:49:41;;;;;;;6.45;5.05;;;24.70;99.90;;;;;;4893903;29;20044;-71
2022/07/24 09:52:12;;;;;;;9.00;5.38;;;25.20;99.90;;;;;;4894185;29;20044;-71
2022/07/24 09:54:41;;;;;;;5.68;4.82;;;25.50;99.90;;;;;;4879372;29;20469;-72
2022/07/24 09:57:23;;;;;;;5.40;4.90;;;25.90;99.90;;;;;;4890842;29;20053;-75
2022/07/24 09:59:52;;;;;;;8.50;5.05;;;26.80;99.90;;;;;;4900465;29;20056;-76
2022/07/24 10:02:21;;;;;;;6.43;4.50;;;27.10;99.90;;;;;;4895017;29;20063;-76
2022/07/24 10:04:50;;;;;;;9.98;4.68;;;27.20;99.90;;;;;;4898494;29;20521;-76
2022/07/24 10:07:20;;;;;;;6.00;4.85;;;27.30;99.90;;;;;;4877684;29;20147;-75
2022/07/24 10:09:49;;;;;;;5.00;4.38;;;28.10;99.90;;;;;;4894052;29;20067;-73
2022/07/24 10:12:19;;;;;;;4.25;3.85;;;29.80;99.90;;;;;;4893034;29;20072;-74
2022/07/24 10:14:48;;;;;;;5.55;3.53;;;31.60;96.60;;;;;;4879487;29;20052;-74
2022/07/24 10:17:17;;;;;;;3.58;3.20;;;32.90;91.90;;;;;;4895540;29;20557;-74
2022/07/24 10:19:46;;;;;;;3.80;3.50;;;33.70;83.50;;;;;;4886140;29;20139;-74
2022/07/24 10:22:16;;;;;;;5.05;3.65;;;33.60;80.30;;;;;;4895647;29;20063;-75
2022/07/24 10:25:04;;;;;;;5.38;3.40;;;34.00;77.90;;;;;;4899482;29;20499;-75
2022/07/24 10:27:33;;;;;;;3.88;3.30;;;34.20;74.70;;;;;;4896462;29;20051;-75
2022/07/24 10:30:02;;;;;;;5.53;3.58;;;33.80;73.80;;;;;;4896289;29;20075;-76
2022/07/24 10:32:33;;;;;;;6.45;2.92;;;33.30;74.60;;;;;;4891576;29;20056;-76
2022/07/24 10:35:09;;;;;;;4.47;3.03;;;32.60;74.50;;;;;;4890607;29;20138;-75
2022/07/24 10:37:49;;;;;;;3.58;2.95;;;32.40;78.20;;;;;;4864916;29;20052;-75
2022/07/24 10:40:26;;;;;;;6.07;3.03;;;32.80;78.10;;;;;;4891224;29;20497;-75
2022/07/24 10:43:16;;;;;;;4.80;3.10;;;33.90;72.90;;;;;;4895515;29;20060;-76
2022/07/24 10:45:45;;;;;;;5.07;3.15;;;34.80;67.70;;;;;;4895339;29;20052;-76
2022/07/24 10:48:33;;;;;;;9.52;3.33;;;35.20;67.30;;;;;;4891872;29;20080;-75
2022/07/24 10:51:07;;;;;;;4.95;3.85;;;34.30;66.80;;;;;;4895534;29;20517;-75
2022/07/24 10:53:47;;;;;;;5.90;3.42;;;33.00;70.20;;;;;;4884484;29;20053;-74
2022/07/24 10:56:23;;;;;;;6.20;3.33;;;32.10;72.30;;;;;;4892954;29;20158;-74
2022/07/24 10:59:07;;;;;;;4.20;3.80;;;32.00;74.70;;;;;;4893729;29;20075;-74
2022/07/24 11:01:42;;;;;;;7.18;2.88;;;33.50;71.80;;;;;;4895978;29;20076;-74
2022/07/24 11:04:29;;;;;;;4.45;3.53;;;35.20;65.60;;;;;;4894802;29;20437;-75
2022/07/24 11:07:01;;;;;;;6.57;3.15;;;35.90;60.00;;;;;;4882810;29;20580;-76
2022/07/24 11:09:29;;;;;;;5.30;3.47;;;35.20;61.80;;;;;;4894442;29;20064;-76
2022/07/24 11:12:08;;;;;;;3.88;3.00;;;34.60;62.10;;;;;;4895286;29;20463;-76
2022/07/24 11:14:51;;;;;;;5.22;3.55;;;33.30;64.80;;;;;;4892564;29;20151;-76
2022/07/24 11:17:42;;;;;;;7.68;3.80;;;32.10;68.10;;;;;;4895838;29;20049;-76
2022/07/24 11:20:11;;;;;;;5.75;3.53;;;31.60;69.10;;;;;;4892583;29;20049;-76
2022/07/24 11:22:44;;;;;;;5.72;3.22;;;32.20;71.70;;;;;;4896625;29;20056;-75
2022/07/24 11:25:16;;;;;;;4.30;3.10;;;33.60;66.80;;;;;;4894433;29;20771;-76
2022/07/24 11:27:45;;;;;;;;;;;35.10;63.40;;;;;;4895487;29;20049;-76
2022/07/24 11:30:14;;;;;;;5.90;3.05;;;35.50;59.70;;;;;;4899766;29;20380;-76
2022/07/24 11:32:42;;;;;;;4.47;2.90;;;35.50;61.00;;;;;;4899614;29;20051;-76
2022/07/24 11:35:10;;;;;;;3.45;3.10;;;35.40;61.30;;;;;;4899286;29;20051;-74
2022/07/24 11:37:39;;;;;;;3.65;2.90;;;34.70;60.80;;;;;;4894766;29;20139;-76
2022/07/24 11:40:08;;;;;;;4.15;3.15;;;34.20;62.90;;;;;;4898613;29;20048;-75
2022/07/24 11:42:36;;;;;;;4.32;3.17;;;34.10;61.80;;;;;;4888419;29;20053;-75
2022/07/24 11:45:05;;;;;;;4.70;3.30;;;33.90;62.50;;;;;;4902156;29;20160;-76
2022/07/24 11:47:33;;;;;;;3.75;2.70;;;33.60;63.10;;;;;;4902440;29;20225;-75
2022/07/24 11:50:04;;;;;;;3.42;3.13;;;33.20;64.20;;;;;;4906218;29;20640;-75
2022/07/24 11:52:34;;;;;;;3.47;3.03;;;33.80;62.60;;;;;;4907036;29;20036;-74
2022/07/24 11:55:04;;;;;;;5.13;2.80;;;34.50;61.30;;;;;;4909302;29;20296;-75
2022/07/24 11:57:36;;;;;;;3.75;2.50;;;35.10;58.60;;;;;;4905747;29;20048;-75
2022/07/24 12:00:08;;;;;;;;;;;35.10;58.70;;;;;;4910505;29;20073;-76
2022/07/24 12:02:45;;;;;;;6.55;3.05;;;35.00;59.70;;;;;;4904180;29;20273;-76
2022/07/24 12:05:12;;;;;;;5.28;2.90;;;35.40;57.30;;;;;;4911223;29;20092;-75
2022/07/24 12:07:40;;;;;;;3.55;3.10;;;35.80;57.50;;;;;;4879381;29;20076;-75
2022/07/24 12:10:08;;;;;;;5.78;2.67;;;36.30;56.10;;;;;;4895251;29;20443;-75
2022/07/24 12:12:37;;;;;;;6.20;3.13;;;36.70;55.70;;;;;;4894178;29;20494;-76
2022/07/24 12:15:08;;;;;;;3.08;2.67;;;36.90;55.00;;;;;;4904159;29;20045;-76
2022/07/24 12:17:54;;;;;;;4.82;2.58;;;37.00;56.60;;;;;;4896411;29;20056;-76
2022/07/24 12:20:22;;;;;;;4.35;3.30;;;36.80;55.60;;;;;;4893398;29;20417;-76
2022/07/24 12:22:50;;;;;;;4.45;2.80;;;35.50;56.20;;;;;;4901053;29;20048;-77
2022/07/24 12:25:18;;;;;;;5.32;3.10;;;34.00;59.00;;;;;;4912783;29;20144;-76
2022/07/24 12:27:47;;;;;;;3.35;3.08;;;32.70;61.60;;;;;;4907624;29;20171;-76
2022/07/24 12:30:22;;;;;;;3.95;2.95;;;31.40;64.40;;;;;;4893770;29;20051;-75
2022/07/24 12:33:01;;;;;;;3.47;3.15;;;30.50;66.10;;;;;;4914114;29;20059;-75
2022/07/24 12:35:30;;;;;;;3.35;2.95;;;29.60;67.80;;;;;;4909574;29;20462;-75
2022/07/24 12:38:02;;;;;;;3.28;2.97;;;29.00;70.10;;;;;;4906245;29;20045;-77
2022/07/24 12:40:33;;;;;;;5.13;3.45;;;28.50;72.40;;;;;;4885078;29;20060;-76
2022/07/24 12:43:09;;;;;;;8.27;4.78;;;28.00;73.50;;;;;;4898302;29;20127;-75
2022/07/24 12:45:38;;;;;;;5.13;3.67;;;27.60;74.90;;;;;;4879911;29;20554;-75
2022/07/24 12:48:21;;;;;;;4.97;3.03;;;27.10;76.50;;;;;;4890296;29;20056;-78
2022/07/24 12:51:01;;;;;;;;;;;26.90;77.50;;;;;;4899026;29;20052;-77
2022/07/24 12:53:30;;;;;;;9.02;3.35;;;26.60;78.80;;;;;;4907832;29;19927;-77
2022/07/24 12:56:07;;;;;;;3.75;3.35;;;26.30;80.10;;;;;;4896770;29;20045;-77
2022/07/24 12:58:58;;;;;;;4.30;3.28;;;26.20;80.50;;;;;;4904568;29;20156;-75
2022/07/24 13:01:29;;;;;;;8.02;3.78;;;26.00;81.90;;;;;;4893643;29;20060;-75